sensor_id;sensor_type;location;lat;lon;timestamp;P1;durP1;ratioP1;P2;durP2;ratioP2
31348;SDS011;17976;48.480;11.946;2023-03-13T18:13:38;5.07;;;1.60;;
31348;SDS011;17976;48.480;11.946;2023-03-13T18:16:38;8.07;;;1.98;;
31348;SDS011;17976;48.480;11.946;2023-03-13T18:19:05;4.13;;;2.00;;
31348;SDS011;17976;48.480;11.946;2023-03-13T18:21:31;3.17;;;1.85;;
31348;SDS011;17976;48.480;11.946;2023-03-13T18:23:57;4.30;;;1.90;;
31348;SDS011;17976;48.480;11.946;2023-03-13T18:28:49;6.45;;;1.90;;
31348;SDS011;17976;48.480;11.946;2023-03-13T18:31:16;5.05;;;1.65;;
31348;SDS011;17976;48.480;11.946;2023-03-13T18:33:42;4.15;;;1.67;;
31348;SDS011;17976;48.480;11.946;2023-03-13T18:36:18;5.50;;;2.17;;
31348;SDS011;17976;48.480;11.946;2023-03-13T18:38:45;3.10;;;1.90;;
31348;SDS011;17976;48.480;11.946;2023-03-13T18:41:11;7.05;;;2.80;;
31348;SDS011;17976;48.480;11.946;2023-03-13T18:43:39;5.43;;;2.25;;
31348;SDS011;17976;48.480;11.946;2023-03-13T18:46:07;5.22;;;3.22;;
31348;SDS011;17976;48.480;11.946;2023-03-13T18:48:33;4.03;;;2.50;;
31348;SDS011;17976;48.480;11.946;2023-03-13T18:50:59;3.45;;;2.22;;
31348;SDS011;17976;48.480;11.946;2023-03-13T18:53:24;8.48;;;2.50;;
31348;SDS011;17976;48.480;11.946;2023-03-13T18:55:50;6.60;;;2.65;;
31348;SDS011;17976;48.480;11.946;2023-03-13T18:58:17;7.03;;;3.92;;
31348;SDS011;17976;48.480;11.946;2023-03-13T19:00:43;6.82;;;3.72;;
31348;SDS011;17976;48.480;11.946;2023-03-13T19:03:08;7.35;;;2.65;;
31348;SDS011;17976;48.480;11.946;2023-03-13T19:05:34;6.05;;;3.10;;
31348;SDS011;17976;48.480;11.946;2023-03-13T19:08:00;8.82;;;2.72;;
31348;SDS011;17976;48.480;11.946;2023-03-13T19:10:28;5.88;;;2.90;;
31348;SDS011;17976;48.480;11.946;2023-03-13T19:12:54;5.35;;;3.40;;
31348;SDS011;17976;48.480;11.946;2023-03-13T19:15:21;8.43;;;3.47;;
31348;SDS011;17976;48.480;11.946;2023-03-13T19:17:48;5.38;;;2.70;;
31348;SDS011;17976;48.480;11.946;2023-03-13T19:20:16;9.07;;;3.10;;
31348;SDS011;17976;48.480;11.946;2023-03-13T19:22:42;7.97;;;3.83;;
31348;SDS011;17976;48.480;11.946;2023-03-13T19:25:09;9.05;;;4.68;;
31348;SDS011;17976;48.480;11.946;2023-03-13T19:27:35;8.95;;;3.97;;
31348;SDS011;17976;48.480;11.946;2023-03-13T19:30:03;7.80;;;3.35;;
31348;SDS011;17976;48.480;11.946;2023-03-13T19:32:29;8.90;;;2.92;;
31348;SDS011;17976;48.480;11.946;2023-03-13T19:34:55;4.85;;;2.17;;
31348;SDS011;17976;48.480;11.946;2023-03-13T19:37:21;6.97;;;2.92;;
31348;SDS011;17976;48.480;11.946;2023-03-13T19:39:47;8.00;;;3.65;;
31348;SDS011;17976;48.480;11.946;2023-03-13T19:42:13;10.02;;;3.78;;
31348;SDS011;17976;48.480;11.946;2023-03-13T19:44:39;9.05;;;4.50;;
31348;SDS011;17976;48.480;11.946;2023-03-13T19:47:05;12.13;;;5.10;;
31348;SDS011;17976;48.480;11.946;2023-03-13T19:49:31;10.80;;;5.30;;
31348;SDS011;17976;48.480;11.946;2023-03-13T19:51:57;10.55;;;5.07;;
31348;SDS011;17976;48.480;11.946;2023-03-13T19:54:24;9.38;;;4.68;;
31348;SDS011;17976;48.480;11.946;2023-03-13T19:56:50;8.45;;;4.93;;
31348;SDS011;17976;48.480;11.946;2023-03-13T20:01:47;9.65;;;5.18;;
31348;SDS011;17976;48.480;11.946;2023-03-13T20:04:13;9.88;;;4.82;;
31348;SDS011;17976;48.480;11.946;2023-03-13T20:06:41;10.02;;;4.50;;
31348;SDS011;17976;48.480;11.946;2023-03-13T20:09:08;10.68;;;5.20;;
31348;SDS011;17976;48.480;11.946;2023-03-13T20:11:35;11.20;;;3.85;;
31348;SDS011;17976;48.480;11.946;2023-03-13T20:14:01;6.53;;;4.15;;
31348;SDS011;17976;48.480;11.946;2023-03-13T20:16:27;16.05;;;6.85;;
31348;SDS011;17976;48.480;11.946;2023-03-13T20:18:57;7.57;;;4.40;;
31348;SDS011;17976;48.480;11.946;2023-03-13T20:21:27;7.90;;;3.90;;
31348;SDS011;17976;48.480;11.946;2023-03-13T20:23:54;7.43;;;3.85;;
31348;SDS011;17976;48.480;11.946;2023-03-13T20:26:21;10.23;;;4.53;;
31348;SDS011;17976;48.480;11.946;2023-03-13T20:28:48;10.90;;;4.05;;
31348;SDS011;17976;48.480;11.946;2023-03-13T20:31:15;8.77;;;5.30;;
31348;SDS011;17976;48.480;11.946;2023-03-13T20:33:41;11.45;;;4.30;;
31348;SDS011;17976;48.480;11.946;2023-03-13T20:36:11;7.60;;;4.22;;
31348;SDS011;17976;48.480;11.946;2023-03-13T20:38:37;9.80;;;4.35;;
31348;SDS011;17976;48.480;11.946;2023-03-13T20:41:04;9.25;;;4.10;;
31348;SDS011;17976;48.480;11.946;2023-03-13T20:43:30;9.30;;;4.70;;
31348;SDS011;17976;48.480;11.946;2023-03-13T20:45:57;8.82;;;4.90;;
31348;SDS011;17976;48.480;11.946;2023-03-13T20:48:26;10.80;;;5.32;;
31348;SDS011;17976;48.480;11.946;2023-03-13T20:50:53;11.02;;;6.55;;
31348;SDS011;17976;48.480;11.946;2023-03-13T20:53:20;11.75;;;5.20;;
31348;SDS011;17976;48.480;11.946;2023-03-13T20:55:46;7.63;;;4.75;;
31348;SDS011;17976;48.480;11.946;2023-03-13T20:58:12;9.02;;;5.10;;
